sensor_id;sensor_type;location;lat;lon;timestamp;P1;durP1;ratioP1;P2;durP2;ratioP2
38805;SDS011;25635;51.146;17.162;2024-03-25T19:55:07;27.90;;;13.70;;
38805;SDS011;25635;51.146;17.162;2024-03-25T19:57:33;29.80;;;16.60;;
38805;SDS011;25635;51.146;17.162;2024-03-25T20:00:00;36.20;;;18.80;;
38805;SDS011;25635;51.146;17.162;2024-03-25T20:02:47;31.00;;;18.10;;
38805;SDS011;25635;51.146;17.162;2024-03-25T20:05:34;31.00;;;18.10;;
38805;SDS011;25635;51.146;17.162;2024-03-25T20:08:24;31.40;;;16.70;;
38805;SDS011;25635;51.146;17.162;2024-03-25T20:10:51;22.20;;;12.40;;
38805;SDS011;25635;51.146;17.162;2024-03-25T20:13:17;19.20;;;11.20;;
38805;SDS011;25635;51.146;17.162;2024-03-25T20:16:05;18.90;;;11.20;;
38805;SDS011;25635;51.146;17.162;2024-03-25T20:18:52;18.90;;;11.30;;
38805;SDS011;25635;51.146;17.162;2024-03-25T20:21:51;20.10;;;12.90;;
38805;SDS011;25635;51.146;17.162;2024-03-25T20:28:40;18.70;;;10.20;;
38805;SDS011;25635;51.146;17.162;2024-03-25T20:31:59;13.00;;;9.00;;
38805;SDS011;25635;51.146;17.162;2024-03-25T20:34:26;17.20;;;9.30;;
38805;SDS011;25635;51.146;17.162;2024-03-25T20:36:52;16.10;;;9.00;;
38805;SDS011;25635;51.146;17.162;2024-03-25T20:39:40;17.40;;;10.50;;
38805;SDS011;25635;51.146;17.162;2024-03-25T20:42:32;27.60;;;15.60;;
38805;SDS011;25635;51.146;17.162;2024-03-25T20:44:58;20.00;;;11.10;;
38805;SDS011;25635;51.146;17.162;2024-03-25T20:47:26;19.30;;;12.20;;
38805;SDS011;25635;51.146;17.162;2024-03-25T20:50:12;22.60;;;12.00;;
38805;SDS011;25635;51.146;17.162;2024-03-25T20:52:39;37.90;;;22.50;;
38805;SDS011;25635;51.146;17.162;2024-03-25T20:55:06;28.40;;;15.90;;
38805;SDS011;25635;51.146;17.162;2024-03-25T20:57:53;32.50;;;19.70;;
38805;SDS011;25635;51.146;17.162;2024-03-25T21:00:19;35.60;;;20.80;;
38805;SDS011;25635;51.146;17.162;2024-03-25T21:03:06;42.50;;;24.40;;
38805;SDS011;25635;51.146;17.162;2024-03-25T21:05:53;36.90;;;21.20;;
38805;SDS011;25635;51.146;17.162;2024-03-25T21:08:26;33.80;;;21.40;;
38805;SDS011;25635;51.146;17.162;2024-03-25T21:11:12;39.60;;;22.30;;
38805;SDS011;25635;51.146;17.162;2024-03-25T21:13:44;33.40;;;20.00;;
38805;SDS011;25635;51.146;17.162;2024-03-25T21:16:10;30.10;;;18.00;;
38805;SDS011;25635;51.146;17.162;2024-03-25T21:19:00;33.40;;;20.70;;
38805;SDS011;25635;51.146;17.162;2024-03-25T21:21:34;34.10;;;21.70;;
38805;SDS011;25635;51.146;17.162;2024-03-25T21:24:21;37.40;;;22.70;;
38805;SDS011;25635;51.146;17.162;2024-03-25T21:26:55;31.60;;;20.90;;
38805;SDS011;25635;51.146;17.162;2024-03-25T21:29:42;32.30;;;22.00;;
38805;SDS011;25635;51.146;17.162;2024-03-25T21:32:08;35.70;;;22.70;;
38805;SDS011;25635;51.146;17.162;2024-03-25T21:34:35;34.80;;;20.40;;
38805;SDS011;25635;51.146;17.162;2024-03-25T21:37:02;33.00;;;21.40;;
38805;SDS011;25635;51.146;17.162;2024-03-25T21:39:28;38.90;;;27.70;;
38805;SDS011;25635;51.146;17.162;2024-03-25T21:41:55;33.20;;;21.40;;
38805;SDS011;25635;51.146;17.162;2024-03-25T21:44:22;41.40;;;27.70;;
38805;SDS011;25635;51.146;17.162;2024-03-25T21:46:48;36.70;;;23.40;;
38805;SDS011;25635;51.146;17.162;2024-03-25T21:49:35;40.20;;;23.80;;
38805;SDS011;25635;51.146;17.162;2024-03-25T21:52:01;38.40;;;22.30;;
38805;SDS011;25635;51.146;17.162;2024-03-25T21:54:48;36.90;;;21.50;;
38805;SDS011;25635;51.146;17.162;2024-03-25T21:57:34;35.00;;;21.70;;
38805;SDS011;25635;51.146;17.162;2024-03-25T22:00:21;32.90;;;22.10;;
38805;SDS011;25635;51.146;17.162;2024-03-25T22:02:49;41.50;;;23.50;;
38805;SDS011;25635;51.146;17.162;2024-03-25T22:05:40;41.00;;;23.60;;
38805;SDS011;25635;51.146;17.162;2024-03-25T22:08:15;40.80;;;25.70;;
38805;SDS011;25635;51.146;17.162;2024-03-25T22:10:42;40.90;;;24.30;;
38805;SDS011;25635;51.146;17.162;2024-03-25T22:13:08;37.90;;;24.30;;
38805;SDS011;25635;51.146;17.162;2024-03-25T22:15:35;36.80;;;21.80;;
38805;SDS011;25635;51.146;17.162;2024-03-25T22:18:02;35.50;;;21.90;;
38805;SDS011;25635;51.146;17.162;2024-03-25T22:20:44;33.80;;;21.90;;
38805;SDS011;25635;51.146;17.162;2024-03-25T22:23:11;35.90;;;21.90;;
38805;SDS011;25635;51.146;17.162;2024-03-25T22:25:37;34.70;;;21.90;;
38805;SDS011;25635;51.146;17.162;2024-03-25T22:28:12;34.50;;;20.40;;
38805;SDS011;25635;51.146;17.162;2024-03-25T22:30:40;30.80;;;19.90;;
38805;SDS011;25635;51.146;17.162;2024-03-25T22:33:26;31.20;;;21.10;;
38805;SDS011;25635;51.146;17.162;2024-03-25T22:36:13;31.70;;;20.10;;
38805;SDS011;25635;51.146;17.162;2024-03-25T22:39:00;31.30;;;20.70;;
38805;SDS011;25635;51.146;17.162;2024-03-25T22:41:26;33.00;;;21.30;;
38805;SDS011;25635;51.146;17.162;2024-03-25T22:43:53;30.10;;;19.50;;
38805;SDS011;25635;51.146;17.162;2024-03-25T22:46:19;31.60;;;20.10;;
38805;SDS011;25635;51.146;17.162;2024-03-25T22:48:46;35.50;;;22.20;;
38805;SDS011;25635;51.146;17.162;2024-03-25T22:51:13;32.80;;;21.30;;
38805;SDS011;25635;51.146;17.162;2024-03-25T22:53:40;34.90;;;20.70;;
38805;SDS011;25635;51.146;17.162;2024-03-25T22:56:07;31.80;;;20.40;;
38805;SDS011;25635;51.146;17.162;2024-03-25T22:58:53;31.50;;;20.00;;
38805;SDS011;25635;51.146;17.162;2024-03-25T23:01:20;33.20;;;21.30;;
38805;SDS011;25635;51.146;17.162;2024-03-25T23:03:46;33.30;;;20.60;;
38805;SDS011;25635;51.146;17.162;2024-03-25T23:06:33;30.20;;;20.20;;
38805;SDS011;25635;51.146;17.162;2024-03-25T23:09:00;29.20;;;19.10;;
38805;SDS011;25635;51.146;17.162;2024-03-25T23:11:26;32.10;;;19.90;;
38805;SDS011;25635;51.146;17.162;2024-03-25T23:13:53;33.50;;;20.30;;
38805;SDS011;25635;51.146;17.162;2024-03-25T23:16:20;30.20;;;19.10;;
38805;SDS011;25635;51.146;17.162;2024-03-25T23:18:46;32.80;;;20.40;;
38805;SDS011;25635;51.146;17.162;2024-03-25T23:21:14;29.50;;;18.50;;
38805;SDS011;25635;51.146;17.162;2024-03-25T23:23:40;32.40;;;18.90;;
38805;SDS011;25635;51.146;17.162;2024-03-25T23:26:07;30.60;;;19.40;;
38805;SDS011;25635;51.146;17.162;2024-03-25T23:28:34;32.80;;;18.80;;
38805;SDS011;25635;51.146;17.162;2024-03-25T23:31:16;33.70;;;19.40;;
38805;SDS011;25635;51.146;17.162;2024-03-25T23:33:43;33.70;;;19.80;;
38805;SDS011;25635;51.146;17.162;2024-03-25T23:36:09;33.90;;;19.20;;
38805;SDS011;25635;51.146;17.162;2024-03-25T23:38:56;25.00;;;16.20;;
38805;SDS011;25635;51.146;17.162;2024-03-25T23:41:22;26.30;;;15.80;;
38805;SDS011;25635;51.146;17.162;2024-03-25T23:44:09;30.80;;;17.50;;
38805;SDS011;25635;51.146;17.162;2024-03-25T23:49:42;30.30;;;18.30;;
38805;SDS011;25635;51.146;17.162;2024-03-25T23:52:09;31.80;;;18.90;;
38805;SDS011;25635;51.146;17.162;2024-03-25T23:54:35;33.00;;;19.90;;
38805;SDS011;25635;51.146;17.162;2024-03-25T23:57:06;34.00;;;19.90;;
38805;SDS011;25635;51.146;17.162;2024-03-25T23:59:34;40.90;;;22.70;;
